Yoxall, United Kingdom

2:12 AM BST on June 27, 2017 (GMT +0100)
Newborough | | Change Station

Elev 361 ft 52.82 °N, 1.80 °W | Updated 25 seconds ago

Overcast
Overcast
57.4 °F
Feels Like 57.4 °F
N
0.0
Wind Variable Wind from SSE
Gusts 0.0 mph

Today
High -- | Low -- °F
--% Chance of Precip.
Yesterday
High -- | Low -- °F
Precip. -- in
Pressure 29.89 in
Visibility 6.2 miles
Clouds Mostly Cloudy 4800 ft
Dew Point 31 °F
Humidity 37%
Rainfall 0.00 in
Snow Depth Not available.
4:44 AM 9:35 PM
Waxing Crescent, 12% visible
METAR EGNX 270050Z 11009KT 9999 BKN048 15/09 Q1012
Pressure 29.89 in
Visibility 6.2 miles
Clouds Mostly Cloudy 4800 ft
Dew Point 31 °F
Humidity 37%
Rainfall 0.00 in
Snow Depth Not available.
4:44 AM 9:35 PM
Waxing Crescent, 12% visible
METAR EGNX 270050Z 11009KT 9999 BKN048 15/09 Q1012

Get Severe Weather Alerts

Thanks for signing up!

Be on the lookout for a verification email in your inbox.

You'll start receiving the daily forecast at 6 AM.

×

10-Day Weather Forecast

×

Almanac

Astronomy

Jun. 27, 2017 Rise Set
Actual Time
Civil Twilight
Nautical Twilight
Astronomical Twilight
Moon
Length of Visible Light
Length of Day
Tomorrow will be .
, % of the Moon is Illuminated

Today's Extremes

Country Highs Country Lows

Community

WunderPhotos

Category 6

Welcome to Category 6. This is the collective home for Weather Underground's featured writeups by Dr. Jeff Masters (right), Bob Henson (left), Chris Burt, and other regular contributors.

Nearby

Air Quality

  Air Quality AQ Index Pollutant
Not available.

Snow Depth

Station Depth Elevation

Earthquake Activity

City Distance Mag. Time & Date
Minimum magnitude displayed is 2.5.

Coastal Water Temperatures

Place Temperature

Stations

Nearby Weather Stations

Station Location Temp. Windchill Dew Point Humidity Wind Precip. Elev Updated Type